createdAt,value
2019-05-14T00:00:01.278Z,1018.75
2019-05-14T00:05:01.806Z,1018.73
2019-05-14T00:10:01.940Z,1018.68
2019-05-14T00:15:02.327Z,1018.7
2019-05-14T00:20:07.238Z,1018.66
2019-05-14T00:25:01.907Z,1018.62
2019-05-14T00:30:02.546Z,1018.57
2019-05-14T00:35:02.167Z,1018.52
2019-05-14T00:40:01.516Z,1018.52
2019-05-14T00:45:01.826Z,1018.45
2019-05-14T00:50:02.283Z,1018.43
2019-05-14T00:55:01.441Z,1018.51
2019-05-14T01:00:01.594Z,1018.56
2019-05-14T01:05:02.025Z,1018.52
2019-05-14T01:10:01.430Z,1018.54
2019-05-14T01:15:09.629Z,1018.52
2019-05-14T01:20:03.107Z,1018.54
2019-05-14T01:25:01.706Z,1018.6
2019-05-14T01:30:02.248Z,1018.58
2019-05-14T01:35:01.539Z,1018.56
2019-05-14T01:40:01.664Z,1018.6
2019-05-14T01:45:02.622Z,1018.65
2019-05-14T01:50:02.182Z,1018.62
2019-05-14T01:55:02.142Z,1018.62
2019-05-14T02:00:02.253Z,1018.59
2019-05-14T02:05:02.150Z,1018.55
2019-05-14T02:10:01.361Z,1018.53
2019-05-14T02:15:02.016Z,1018.46
2019-05-14T02:20:02.284Z,1018.41
2019-05-14T02:25:02.416Z,1018.46
2019-05-14T02:30:02.151Z,1018.41
2019-05-14T02:35:01.426Z,1018.29
2019-05-14T02:40:01.436Z,1018.26
2019-05-14T02:45:01.619Z,1018.2
2019-05-14T02:50:01.721Z,1018.25
2019-05-14T02:55:01.836Z,1018.22
2019-05-14T03:00:02.041Z,1018.1
2019-05-14T03:05:01.212Z,1018.13
2019-05-14T03:10:01.350Z,1018.11
2019-05-14T03:15:01.527Z,1018.15
2019-05-14T03:20:01.744Z,1018.12
2019-05-14T03:25:01.859Z,1018.15
2019-05-14T03:30:02.000Z,1018.08
2019-05-14T03:35:03.729Z,1018.11
2019-05-14T03:40:01.698Z,1018.11
2019-05-14T03:45:01.849Z,1018.17
2019-05-14T03:50:02.001Z,1018.18
2019-05-14T03:55:04.468Z,1018.27
2019-05-14T04:00:02.056Z,1018.29
2019-05-14T04:05:01.209Z,1018.37
2019-05-14T04:10:01.322Z,1018.38
2019-05-14T04:15:01.437Z,1018.38
2019-05-14T04:20:01.659Z,1018.35
2019-05-14T04:25:01.769Z,1018.3
2019-05-14T04:30:01.941Z,1018.32
2019-05-14T04:35:02.239Z,1018.24
2019-05-14T04:40:01.902Z,1018.18
2019-05-14T04:45:05.491Z,1018.19
2019-05-14T04:50:01.137Z,1018.24
2019-05-14T04:55:01.960Z,1018.29
2019-05-14T05:00:02.082Z,1018.34
2019-05-14T05:05:01.244Z,1018.32
2019-05-14T05:10:01.369Z,1018.4
2019-05-14T05:15:01.553Z,1018.4
2019-05-14T05:20:01.708Z,1018.34
2019-05-14T05:25:01.832Z,1018.31
2019-05-14T05:30:01.972Z,1018.23
2019-05-14T05:35:01.189Z,1018.28
2019-05-14T05:40:01.301Z,1018.3
2019-05-14T05:45:01.451Z,1018.3
2019-05-14T05:50:01.604Z,1018.28
2019-05-14T05:55:01.758Z,1018.23
2019-05-14T06:00:01.920Z,1018.23
2019-05-14T06:05:02.085Z,1018.23
2019-05-14T06:10:01.264Z,1018.22
2019-05-14T06:15:01.440Z,1018.08
2019-05-14T06:20:01.583Z,1018.02
2019-05-14T06:25:01.879Z,1018
2019-05-14T06:30:01.131Z,1017.94
2019-05-14T06:35:01.321Z,1017.91
2019-05-14T06:40:01.598Z,1017.9
2019-05-14T06:45:01.808Z,1017.87
2019-05-14T06:50:01.948Z,1017.84
2019-05-14T06:55:02.159Z,1017.76
2019-05-14T07:00:01.293Z,1017.84
2019-05-14T07:05:01.447Z,1017.94
2019-05-14T07:10:01.551Z,1017.91
2019-05-14T07:15:01.745Z,1017.94
2019-05-14T07:20:01.881Z,1017.89
2019-05-14T07:25:01.983Z,1017.82
2019-05-14T07:30:02.172Z,1017.79
2019-05-14T07:35:01.332Z,1017.71
2019-05-14T07:40:01.468Z,1017.64
2019-05-14T07:45:01.689Z,1017.66
2019-05-14T07:50:01.895Z,1017.6
2019-05-14T07:55:02.025Z,1017.52
2019-05-14T08:00:01.148Z,1017.47
2019-05-14T08:05:01.313Z,1017.46
2019-05-14T08:10:01.468Z,1017.35
2019-05-14T08:15:17.393Z,1017.31
2019-05-14T08:20:01.927Z,1017.32
2019-05-14T08:25:02.033Z,1017.26
2019-05-14T08:30:01.166Z,1017.24
2019-05-14T08:35:01.311Z,1017.16
2019-05-14T08:40:01.457Z,1017.15
2019-05-14T08:45:04.883Z,1017.06
2019-05-14T08:50:02.134Z,1017.12
2019-05-14T08:55:09.703Z,1017.09
2019-05-14T09:00:01.241Z,1017.04
2019-05-14T09:05:04.071Z,1017.06
2019-05-14T09:10:02.053Z,1017.05
2019-05-14T09:15:01.184Z,1016.96
2019-05-14T09:20:06.479Z,1016.99
2019-05-14T09:25:01.208Z,1017.02
2019-05-14T09:30:01.445Z,1016.95
2019-05-14T09:35:01.675Z,1016.79
2019-05-14T09:40:01.828Z,1016.79
2019-05-14T09:45:02.067Z,1016.63
2019-05-14T09:50:15.109Z,1016.51
2019-05-14T09:55:01.659Z,1016.42
2019-05-14T10:00:01.774Z,1016.35
2019-05-14T10:05:01.882Z,1016.27
2019-05-14T10:10:02.595Z,1016.26
2019-05-14T10:15:01.871Z,1016.31
2019-05-14T10:20:02.071Z,1016.41
2019-05-14T10:25:01.217Z,1016.36
2019-05-14T10:30:01.378Z,1016.32
2019-05-14T10:35:01.557Z,1016.31
2019-05-14T10:40:01.689Z,1016.16
2019-05-14T10:45:01.838Z,1016.13
2019-05-14T10:50:02.040Z,1016.06
2019-05-14T10:55:01.170Z,1016.09
2019-05-14T11:00:01.311Z,1016.07
2019-05-14T11:05:01.485Z,1016.02
2019-05-14T11:10:01.645Z,1016.01
2019-05-14T11:15:01.771Z,1015.98
2019-05-14T11:20:01.908Z,1015.92
2019-05-14T11:25:02.095Z,1015.75
2019-05-14T11:30:01.326Z,1015.61
2019-05-14T11:35:01.486Z,1015.52
2019-05-14T11:40:01.638Z,1015.38
2019-05-14T11:45:01.763Z,1015.27
2019-05-14T11:50:02.157Z,1015.2
2019-05-14T11:55:01.297Z,1015.16
2019-05-14T12:00:01.420Z,1015.15
2019-05-14T12:05:01.545Z,1015.01
2019-05-14T12:10:01.763Z,1014.99
2019-05-14T12:15:01.912Z,1014.87
2019-05-14T12:20:02.162Z,1014.89
2019-05-14T12:25:01.288Z,1014.8
2019-05-14T12:30:01.492Z,1014.77
2019-05-14T12:35:01.644Z,1014.63
2019-05-14T12:40:01.780Z,1014.44
2019-05-14T12:45:01.919Z,1014.37
2019-05-14T12:50:02.078Z,1014.31
2019-05-14T12:55:01.220Z,1014.25
2019-05-14T13:00:01.350Z,1014.14
2019-05-14T13:05:01.575Z,1014.08
2019-05-14T13:10:01.904Z,1014.13
2019-05-14T13:15:02.281Z,1014.13
2019-05-14T13:20:01.549Z,1014.12
2019-05-14T13:25:01.686Z,1013.99
2019-05-14T13:30:01.897Z,1013.9
2019-05-14T13:35:02.079Z,1013.91
2019-05-14T13:40:01.196Z,1013.9
2019-05-14T13:45:01.325Z,1013.78
2019-05-14T13:50:01.487Z,1013.93
2019-05-14T13:55:01.630Z,1013.8
2019-05-14T14:00:01.774Z,1013.74
2019-05-14T14:05:01.888Z,1013.63
2019-05-14T14:10:02.069Z,1013.47
2019-05-14T14:15:01.295Z,1013.52
2019-05-14T14:20:01.471Z,1013.43
2019-05-14T14:25:01.614Z,1013.35
2019-05-14T14:30:01.798Z,1013.26
2019-05-14T14:35:02.069Z,1013.21
2019-05-14T14:40:01.223Z,1013.13
2019-05-14T14:45:01.330Z,1013.12
2019-05-14T14:50:01.535Z,1013.13
2019-05-14T14:55:01.682Z,1013.01
2019-05-14T15:00:01.810Z,1012.92
2019-05-14T15:05:01.977Z,1012.89
2019-05-14T15:10:01.195Z,1012.89
2019-05-14T15:15:01.286Z,1012.92
2019-05-14T15:20:01.503Z,1012.8
2019-05-14T15:25:01.663Z,1012.67
2019-05-14T15:30:01.859Z,1012.61
2019-05-14T15:35:02.018Z,1012.71
2019-05-14T15:40:03.921Z,1012.53
2019-05-14T15:45:01.507Z,1012.53
2019-05-14T15:50:01.633Z,1012.51
2019-05-14T15:55:01.761Z,1012.52
2019-05-14T16:00:02.091Z,1012.34
2019-05-14T16:05:01.267Z,1012.37
2019-05-14T16:10:01.442Z,1012.41
2019-05-14T16:15:01.580Z,1012.35
2019-05-14T16:20:01.720Z,1012.29
2019-05-14T16:25:01.874Z,1012.22
2019-05-14T16:30:02.017Z,1012.2
2019-05-14T16:35:01.176Z,1012.19
2019-05-14T16:40:01.319Z,1012.22
2019-05-14T16:45:01.418Z,1012.29
2019-05-14T16:50:01.575Z,1012.35
2019-05-14T16:55:17.378Z,1012.28
2019-05-14T17:00:01.604Z,1012.35
2019-05-14T17:05:01.757Z,1012.29
2019-05-14T17:10:01.935Z,1012.28
2019-05-14T17:15:02.081Z,1012.29
2019-05-14T17:20:01.199Z,1012.25
2019-05-14T17:25:01.392Z,1012.3
2019-05-14T17:30:01.558Z,1012.3
2019-05-14T17:35:01.944Z,1012.27
2019-05-14T17:40:01.197Z,1012.31
2019-05-14T17:45:01.291Z,1012.41
2019-05-14T17:50:01.452Z,1012.38
2019-05-14T17:55:01.578Z,1012.4
2019-05-14T18:00:01.707Z,1012.42
2019-05-14T18:05:01.861Z,1012.37
2019-05-14T18:10:02.053Z,1012.36
2019-05-14T18:15:01.202Z,1012.32
2019-05-14T18:20:01.358Z,1012.36
2019-05-14T18:25:01.468Z,1012.35
2019-05-14T18:30:01.671Z,1012.42
2019-05-14T18:35:01.827Z,1012.36
2019-05-14T18:40:01.948Z,1012.38
2019-05-14T18:45:02.244Z,1012.34
2019-05-14T18:50:01.407Z,1012.35
2019-05-14T18:55:01.533Z,1012.41
2019-05-14T19:00:01.685Z,1012.43
2019-05-14T19:05:01.883Z,1012.44
2019-05-14T19:10:02.013Z,1012.46
2019-05-14T19:15:01.174Z,1012.46
2019-05-14T19:20:01.310Z,1012.48
2019-05-14T19:25:01.471Z,1012.55
2019-05-14T19:30:03.217Z,1012.55
2019-05-14T19:35:01.499Z,1012.52
2019-05-14T19:40:01.631Z,1012.56
2019-05-14T19:45:01.804Z,1012.61
2019-05-14T19:50:01.933Z,1012.67
2019-05-14T19:55:02.063Z,1012.62
2019-05-14T20:00:01.194Z,1012.61
2019-05-14T20:05:05.360Z,1012.66
2019-05-14T20:10:01.781Z,1012.67
2019-05-14T20:15:01.141Z,1012.59
2019-05-14T20:20:01.243Z,1012.6
2019-05-14T20:25:01.432Z,1012.72
2019-05-14T20:30:01.528Z,1012.58
2019-05-14T20:35:01.630Z,1012.54
2019-05-14T20:40:01.785Z,1012.53
2019-05-14T20:45:01.992Z,1012.56
2019-05-14T20:50:01.117Z,1012.54
2019-05-14T20:55:01.220Z,1012.57
2019-05-14T21:00:01.368Z,1012.55
2019-05-14T21:05:04.471Z,1012.52
2019-05-14T21:10:01.441Z,1012.48
2019-05-14T21:15:01.589Z,1012.48
2019-05-14T21:20:01.754Z,1012.5
2019-05-14T21:25:01.914Z,1012.49
2019-05-14T21:30:02.056Z,1012.56
2019-05-14T21:35:01.237Z,1012.53
2019-05-14T21:40:01.370Z,1012.49
2019-05-14T21:45:01.568Z,1012.43
2019-05-14T21:50:01.699Z,1012.41
2019-05-14T21:55:01.828Z,1012.32
2019-05-14T22:00:01.970Z,1012.34
2019-05-14T22:05:01.512Z,1012.33
2019-05-14T22:10:01.849Z,1012.34
2019-05-14T22:15:01.975Z,1012.28
2019-05-14T22:20:02.152Z,1012.24
2019-05-14T22:25:01.275Z,1012.23
2019-05-14T22:30:01.412Z,1012.15
2019-05-14T22:35:01.514Z,1012.19
2019-05-14T22:40:01.661Z,1012.22
2019-05-14T22:45:01.805Z,1012.2
2019-05-14T22:50:01.953Z,1012.18
2019-05-14T22:55:02.145Z,1012.12
2019-05-14T23:00:01.273Z,1012.1
2019-05-14T23:05:01.398Z,1012.12
2019-05-14T23:10:03.562Z,1012.12
2019-05-14T23:15:01.686Z,1012.11
2019-05-14T23:20:01.825Z,1012.07
2019-05-14T23:25:01.975Z,1012.03
2019-05-14T23:30:01.172Z,1012
2019-05-14T23:35:01.340Z,1011.99
2019-05-14T23:40:01.516Z,1011.93
2019-05-14T23:45:01.664Z,1011.89
2019-05-14T23:50:01.847Z,1011.9
2019-05-14T23:55:01.989Z,1011.89
